Accueil
METAR-TAF:

METAR-TAF

Aéroports :

Billy Mitchell Airport

Hatteras, Caroline du Nord, États-Unis

latitude: 35-13-56N, longitude: 075-37-21W, altitude: 5 m

Observation

Le bulletin a été fait il y a 1 heure et 3 minutes, à 21:51 UTC
Vent 4 kt de direction variable
Température 12°C
Humidité 67%
Pression 1019 hPa
Visibilité: 16.1 km
Ciel clair

METAR: KHSE 202151Z AUTO VRB04KT 10SM CLR 12/06 A3009 RMK AO2 SLP189 T01170056

Heure: 17:54 (22:54 UTC)


TAF: absent

Observations et prévisions météorologiques de plus de 4000 aéroports (messages METAR et TAF).

Les stations disponibles sont représentées par des disques jaunes et rouges sur la carte.

Passer la souris dessus pour voir le nom de la station.

Cliquer dessus pour voir les observations et prévisions météorologiques.

Pour changer de carte: cliquez sur les boutons verts avec une croix noire pour zoomer, sur le bouton vert avec un tiret pour effectuer un zoom arrière, ou sur les flèches vertes pour les cartes adjacentes.


METAR-TAF: